createdAt,value
2019-04-11T00:00:33.400Z,1017.24
2019-04-11T00:01:39.462Z,1017.23
2019-04-11T00:02:34.371Z,1017.26
2019-04-11T00:03:33.571Z,1017.31
2019-04-11T00:04:34.387Z,1017.29
2019-04-11T00:05:33.338Z,1017.28
2019-04-11T00:06:33.829Z,1017.26
2019-04-11T00:07:33.312Z,1017.28
2019-04-11T00:08:34.185Z,1017.28
2019-04-11T00:09:34.442Z,1017.27
2019-04-11T00:10:33.416Z,1017.26
2019-04-11T00:11:33.599Z,1017.26
2019-04-11T00:12:33.270Z,1017.26
2019-04-11T00:13:35.186Z,1017.30
2019-04-11T00:14:33.239Z,1017.26
2019-04-11T00:15:33.227Z,1017.40
2019-04-11T00:16:33.216Z,1017.37
2019-04-11T00:17:34.195Z,1017.38
2019-04-11T00:18:33.205Z,1017.34
2019-04-11T00:19:33.645Z,1017.36
2019-04-11T00:20:33.871Z,1017.31
2019-04-11T00:21:33.163Z,1017.41
2019-04-11T00:22:33.346Z,1017.40
2019-04-11T00:23:34.156Z,1017.39
2019-04-11T00:24:33.139Z,1017.35
2019-04-11T00:25:33.756Z,1017.34
2019-04-11T00:26:33.107Z,1017.40
2019-04-11T00:27:33.096Z,1017.37
2019-04-11T00:28:34.030Z,1017.38
2019-04-11T00:29:33.077Z,1017.33
2019-04-11T00:30:33.077Z,1017.40
2019-04-11T00:31:33.054Z,1017.37
2019-04-11T00:32:33.767Z,1017.41
2019-04-11T00:33:33.988Z,1017.41
2019-04-11T00:34:33.137Z,1017.40
2019-04-11T00:35:33.597Z,1017.43
2019-04-11T00:36:33.008Z,1017.43
2019-04-11T00:37:32.989Z,1017.39
2019-04-11T00:38:34.111Z,1017.39
2019-04-11T00:39:32.967Z,1017.41
2019-04-11T00:40:33.288Z,1017.44
2019-04-11T00:41:34.208Z,1017.40
2019-04-11T00:42:32.952Z,1017.41
2019-04-11T00:43:37.632Z,1017.44
2019-04-11T00:44:34.741Z,1017.43
2019-04-11T00:45:33.809Z,1017.40
2019-04-11T00:46:32.892Z,1017.42
2019-04-11T00:47:33.191Z,1017.44
2019-04-11T00:48:33.502Z,1017.46
2019-04-11T00:49:32.859Z,1017.43
2019-04-11T00:50:32.848Z,1017.46
2019-04-11T00:51:33.863Z,1017.46
2019-04-11T00:52:33.628Z,1017.50
2019-04-11T00:53:33.993Z,1017.44
2019-04-11T00:54:33.168Z,1017.43
2019-04-11T00:55:32.796Z,1017.47
2019-04-11T00:56:32.785Z,1017.47
2019-04-11T00:57:32.825Z,1017.49
2019-04-11T00:58:33.860Z,1017.53
2019-04-11T00:59:32.751Z,1017.41
2019-04-11T01:00:33.354Z,1017.49
2019-04-11T01:01:33.674Z,1017.51
2019-04-11T01:02:33.657Z,1017.52
2019-04-11T01:03:33.825Z,1017.53
2019-04-11T01:04:32.804Z,1017.52
2019-04-11T01:05:33.817Z,1017.53
2019-04-11T01:06:32.690Z,1017.55
2019-04-11T01:07:33.173Z,1017.53
2019-04-11T01:08:32.656Z,1017.54
2019-04-11T01:09:32.731Z,1017.52
2019-04-11T01:10:32.632Z,1017.58
2019-04-11T01:11:32.621Z,1017.56
2019-04-11T01:12:32.623Z,1017.55
2019-04-11T01:13:42.508Z,1017.54
2019-04-11T01:14:34.196Z,1017.53
2019-04-11T01:15:32.582Z,1017.55
2019-04-11T01:16:32.652Z,1017.57
2019-04-11T01:17:33.593Z,1017.54
2019-04-11T01:18:32.559Z,1017.54
2019-04-11T01:19:33.019Z,1017.59
2019-04-11T01:20:32.525Z,1017.51
2019-04-11T01:21:32.820Z,1017.58
2019-04-11T01:22:32.504Z,1017.54
2019-04-11T01:23:33.238Z,1017.57
2019-04-11T01:24:33.616Z,1017.57
2019-04-11T01:25:32.702Z,1017.55
2019-04-11T01:26:33.004Z,1017.60
2019-04-11T01:27:32.448Z,1017.57
2019-04-11T01:28:32.448Z,1017.64
2019-04-11T01:29:33.463Z,1017.62
2019-04-11T01:30:33.303Z,1017.61
2019-04-11T01:31:32.421Z,1017.58
2019-04-11T01:32:32.594Z,1017.63
2019-04-11T01:33:32.404Z,1017.65
2019-04-11T01:34:32.926Z,1017.62
2019-04-11T01:35:33.197Z,1017.66
2019-04-11T01:36:33.223Z,1017.67
2019-04-11T01:37:33.452Z,1017.65
2019-04-11T01:38:32.531Z,1017.64
2019-04-11T01:39:32.793Z,1017.67
2019-04-11T01:40:32.324Z,1017.72
2019-04-11T01:41:32.300Z,1017.68
2019-04-11T01:42:33.370Z,1017.68
2019-04-11T01:43:32.504Z,1017.67
2019-04-11T01:44:32.541Z,1017.71
2019-04-11T01:45:32.272Z,1017.68
2019-04-11T01:46:32.255Z,1017.73
2019-04-11T01:47:32.976Z,1017.74
2019-04-11T01:48:33.319Z,1017.72
2019-04-11T01:49:32.400Z,1017.72
2019-04-11T01:50:32.871Z,1017.68
2019-04-11T01:51:32.196Z,1017.73
2019-04-11T01:52:32.182Z,1017.78
2019-04-11T01:53:33.143Z,1017.70
2019-04-11T01:54:32.251Z,1017.75
2019-04-11T01:55:32.576Z,1017.71
2019-04-11T01:56:32.142Z,1017.72
2019-04-11T01:57:32.132Z,1017.75
2019-04-11T01:58:32.975Z,1017.71
2019-04-11T01:59:32.295Z,1017.70
2019-04-11T02:00:32.306Z,1017.74
2019-04-11T02:01:32.673Z,1017.75
2019-04-11T02:02:32.700Z,1017.67
2019-04-11T02:03:33.099Z,1017.72
2019-04-11T02:04:32.126Z,1017.73
2019-04-11T02:05:32.811Z,1017.70
2019-04-11T02:06:32.075Z,1017.69
2019-04-11T02:07:32.025Z,1017.67
2019-04-11T02:08:32.015Z,1017.72
2019-04-11T02:09:32.444Z,1017.76
2019-04-11T02:10:32.882Z,1017.73
2019-04-11T02:11:31.983Z,1017.77
2019-04-11T02:12:32.028Z,1017.83
2019-04-11T02:13:32.195Z,1017.76
2019-04-11T02:14:31.952Z,1017.79
2019-04-11T02:15:32.412Z,1017.82
2019-04-11T02:16:32.748Z,1017.81
2019-04-11T02:17:32.855Z,1017.84
2019-04-11T02:18:31.921Z,1017.85
2019-04-11T02:19:32.194Z,1017.87
2019-04-11T02:20:31.889Z,1017.85
2019-04-11T02:21:31.880Z,1017.87
2019-04-11T02:22:32.748Z,1017.90
2019-04-11T02:23:32.018Z,1017.88
2019-04-11T02:24:32.107Z,1017.87
2019-04-11T02:25:32.349Z,1017.88
2019-04-11T02:26:31.826Z,1017.90
2019-04-11T02:27:32.701Z,1017.89
2019-04-11T02:28:32.826Z,1017.91
2019-04-11T02:29:31.793Z,1017.89
2019-04-11T02:30:31.794Z,1017.88
2019-04-11T02:31:32.603Z,1017.91
2019-04-11T02:32:32.042Z,1017.94
2019-04-11T02:33:32.934Z,1017.96
2019-04-11T02:34:31.755Z,1017.91
2019-04-11T02:35:31.766Z,1017.90
2019-04-11T02:36:33.744Z,1017.97
2019-04-11T02:37:33.468Z,1017.93
2019-04-11T02:38:32.640Z,1017.93
2019-04-11T02:39:33.795Z,1017.95
2019-04-11T02:40:32.699Z,1017.95
2019-04-11T02:41:33.506Z,1017.95
2019-04-11T02:42:33.015Z,1018.00
2019-04-11T02:43:32.089Z,1017.95
2019-04-11T02:44:46.076Z,1017.94
2019-04-11T02:45:45.200Z,1017.97
2019-04-11T02:46:42.451Z,1018.00
2019-04-11T02:47:35.153Z,1017.99
2019-04-11T02:48:33.008Z,1017.99
2019-04-11T02:49:32.929Z,1017.96
2019-04-11T02:50:32.134Z,1018.02
2019-04-11T02:51:31.562Z,1018.02
2019-04-11T02:52:33.186Z,1018.00
2019-04-11T02:53:32.724Z,1018.00
2019-04-11T02:54:33.536Z,1017.97
2019-04-11T02:55:31.717Z,1018.01
2019-04-11T02:56:33.457Z,1017.99
2019-04-11T02:57:32.217Z,1018.04
2019-04-11T02:58:31.875Z,1018.02
2019-04-11T02:59:31.491Z,1018.03
2019-04-11T03:00:33.088Z,1018.02
2019-04-11T03:01:31.941Z,1017.98
2019-04-11T03:02:32.702Z,1018.04
2019-04-11T03:03:31.993Z,1018.03
2019-04-11T03:04:31.671Z,1018.06
2019-04-11T03:05:34.510Z,1018.02
2019-04-11T03:06:33.259Z,1018.03
2019-04-11T03:07:31.975Z,1018.03
2019-04-11T03:08:34.108Z,1018.01
2019-04-11T03:09:31.806Z,1018.00
2019-04-11T03:10:33.504Z,1018.00
2019-04-11T03:11:32.518Z,1018.01
2019-04-11T03:12:31.968Z,1018.00
2019-04-11T03:13:33.200Z,1018.00
2019-04-11T03:14:46.252Z,1018.05
2019-04-11T03:15:48.329Z,1018.05
2019-04-11T03:16:42.675Z,1018.01
2019-04-11T03:17:36.870Z,1017.98
2019-04-11T03:18:52.872Z,1018.03
2019-04-11T03:19:44.182Z,1018.03
2019-04-11T03:20:39.243Z,1018.05
2019-04-11T03:21:36.687Z,1018.04
2019-04-11T03:22:32.693Z,1018.03
2019-04-11T03:23:31.703Z,1018.06
2019-04-11T03:24:33.250Z,1018.09
2019-04-11T03:25:33.011Z,1018.04
2019-04-11T03:26:31.261Z,1018.04
2019-04-11T03:27:32.529Z,1018.05
2019-04-11T03:28:33.046Z,1018.14
2019-04-11T03:29:33.331Z,1018.11
2019-04-11T03:30:46.510Z,1018.07
2019-04-11T03:32:13.954Z,1018.11
2019-04-11T03:33:18.286Z,1018.07
2019-04-11T03:36:28.375Z,1018.08
2019-04-11T03:37:55.210Z,1018.14
2019-04-11T03:38:58.773Z,1018.16
2019-04-11T03:39:53.864Z,1018.15
2019-04-11T03:40:52.024Z,1018.15
2019-04-11T03:41:51.846Z,1018.14
2019-04-11T03:42:43.336Z,1018.12
2019-04-11T03:43:42.021Z,1018.10
2019-04-11T03:44:39.528Z,1018.11
2019-04-11T03:45:47.922Z,1018.17
2019-04-11T03:46:48.199Z,1018.17
2019-04-11T03:47:47.594Z,1018.16
2019-04-11T03:48:43.743Z,1018.18
2019-04-11T03:49:43.255Z,1018.21
2019-04-11T03:50:32.888Z,1018.15
2019-04-11T03:51:31.267Z,1018.18
2019-04-11T03:52:32.629Z,1018.19
2019-04-11T03:53:32.483Z,1018.19
2019-04-11T03:54:31.822Z,1018.23
2019-04-11T03:55:32.454Z,1018.18
2019-04-11T03:56:30.874Z,1018.22
2019-04-11T03:57:31.867Z,1018.22
2019-04-11T03:58:31.242Z,1018.18
2019-04-11T03:59:31.442Z,1018.17
2019-04-11T04:00:35.944Z,1018.15
2019-04-11T04:01:32.576Z,1018.20
2019-04-11T04:02:32.335Z,1018.21
2019-04-11T04:03:31.107Z,1018.20
2019-04-11T04:04:30.788Z,1018.25
2019-04-11T04:05:36.187Z,1018.20
2019-04-11T04:06:33.031Z,1018.27
2019-04-11T04:07:31.967Z,1018.25
2019-04-11T04:08:31.449Z,1018.29
2019-04-11T04:09:30.745Z,1018.30
2019-04-11T04:10:31.792Z,1018.31
2019-04-11T04:11:32.641Z,1018.31
2019-04-11T04:12:31.437Z,1018.30
2019-04-11T04:13:31.935Z,1018.34
2019-04-11T04:14:32.448Z,1018.31
2019-04-11T04:15:41.033Z,1018.35
2019-04-11T04:16:40.148Z,1018.32
2019-04-11T04:17:32.956Z,1018.37
2019-04-11T04:18:31.777Z,1018.36
2019-04-11T04:19:32.686Z,1018.35
2019-04-11T04:20:30.728Z,1018.36
2019-04-11T04:21:31.152Z,1018.40
2019-04-11T04:22:31.477Z,1018.38
2019-04-11T04:23:31.458Z,1018.45
2019-04-11T04:24:34.806Z,1018.47
2019-04-11T04:25:32.515Z,1018.52
2019-04-11T04:26:31.317Z,1018.44
2019-04-11T04:27:32.195Z,1018.47
2019-04-11T04:28:31.745Z,1018.52
2019-04-11T04:29:32.317Z,1018.50
2019-04-11T04:30:30.513Z,1018.51
2019-04-11T04:31:30.777Z,1018.55
2019-04-11T04:32:32.294Z,1018.51
2019-04-11T04:33:31.458Z,1018.52
2019-04-11T04:34:31.608Z,1018.55
2019-04-11T04:35:31.684Z,1018.58
2019-04-11T04:36:30.911Z,1018.58
2019-04-11T04:37:31.971Z,1018.62
2019-04-11T04:38:31.561Z,1018.63
2019-04-11T04:39:31.365Z,1018.63
2019-04-11T04:40:47.964Z,1018.65
2019-04-11T04:41:39.266Z,1018.68
2019-04-11T04:42:37.051Z,1018.67
2019-04-11T04:43:32.191Z,1018.66
2019-04-11T04:44:31.717Z,1018.65
2019-04-11T04:45:49.732Z,1018.67
2019-04-11T04:46:47.345Z,1018.64
2019-04-11T04:47:39.507Z,1018.66
2019-04-11T04:48:32.362Z,1018.66
2019-04-11T04:49:32.213Z,1018.66
2019-04-11T04:50:30.931Z,1018.68
2019-04-11T04:51:31.170Z,1018.69
2019-04-11T04:52:31.889Z,1018.69
2019-04-11T04:53:30.980Z,1018.70
2019-04-11T04:54:30.817Z,1018.71
2019-04-11T04:55:30.504Z,1018.72
2019-04-11T04:56:32.216Z,1018.74
2019-04-11T04:57:31.756Z,1018.78
2019-04-11T04:58:31.677Z,1018.74
2019-04-11T04:59:31.836Z,1018.72
2019-04-11T05:00:32.005Z,1018.72
2019-04-11T05:01:31.566Z,1018.75
2019-04-11T05:02:30.963Z,1018.81
2019-04-11T05:03:31.840Z,1018.86
2019-04-11T05:04:31.690Z,1018.85
2019-04-11T05:05:31.047Z,1018.89
2019-04-11T05:06:30.123Z,1018.86
2019-04-11T05:07:34.145Z,1018.86
2019-04-11T05:08:32.552Z,1018.83
2019-04-11T05:09:30.092Z,1018.88
2019-04-11T05:10:30.694Z,1018.86
2019-04-11T05:11:30.566Z,1018.88
2019-04-11T05:12:30.354Z,1018.83
2019-04-11T05:13:30.295Z,1018.86
2019-04-11T05:14:31.434Z,1018.85
2019-04-11T05:15:30.159Z,1018.83
2019-04-11T05:16:30.033Z,1018.83
2019-04-11T05:17:30.007Z,1018.86
2019-04-11T05:18:29.997Z,1018.86
2019-04-11T05:19:30.062Z,1018.88
2019-04-11T05:20:30.212Z,1018.89
2019-04-11T05:21:29.960Z,1018.87
2019-04-11T05:22:30.978Z,1018.84
2019-04-11T05:23:29.943Z,1018.84
2019-04-11T05:24:30.481Z,1018.88
2019-04-11T05:25:30.629Z,1018.88
2019-04-11T05:26:29.919Z,1018.91
2019-04-11T05:27:29.896Z,1018.97
2019-04-11T05:28:29.885Z,1018.93
2019-04-11T05:29:29.874Z,1018.96
2019-04-11T05:30:29.864Z,1018.95
2019-04-11T05:31:30.325Z,1018.98
2019-04-11T05:32:29.852Z,1019.06
2019-04-11T05:33:29.839Z,1019.07
2019-04-11T05:34:29.820Z,1019.09
2019-04-11T05:35:29.951Z,1019.07
2019-04-11T05:36:30.417Z,1019.08
2019-04-11T05:37:29.790Z,1019.06
2019-04-11T05:38:29.792Z,1019.15
2019-04-11T05:39:29.769Z,1019.14
2019-04-11T05:40:30.104Z,1019.11
2019-04-11T05:41:29.747Z,1019.18
2019-04-11T05:42:29.735Z,1019.18
2019-04-11T05:43:35.902Z,1019.20
2019-04-11T05:44:30.724Z,1019.21
2019-04-11T05:45:29.703Z,1019.22
2019-04-11T05:46:35.352Z,1019.26
2019-04-11T05:47:31.719Z,1019.30
2019-04-11T05:48:30.539Z,1019.34
2019-04-11T05:49:35.137Z,1019.38
2019-04-11T05:50:31.929Z,1019.37
2019-04-11T05:51:36.875Z,1019.36
2019-04-11T05:52:32.224Z,1019.32
2019-04-11T05:53:32.747Z,1019.31
2019-04-11T05:54:29.607Z,1019.22
2019-04-11T05:55:30.169Z,1019.28
2019-04-11T05:56:29.932Z,1019.23
2019-04-11T05:57:35.299Z,1019.29
2019-04-11T05:58:30.563Z,1019.23
2019-04-11T05:59:30.611Z,1019.26
2019-04-11T06:00:30.492Z,1019.32
2019-04-11T06:01:30.741Z,1019.37
2019-04-11T06:02:29.543Z,1019.40
2019-04-11T06:03:30.254Z,1019.31
2019-04-11T06:04:30.243Z,1019.27
2019-04-11T06:05:32.405Z,1019.24
2019-04-11T06:06:36.078Z,1019.22
2019-04-11T06:07:30.477Z,1019.29
2019-04-11T06:08:30.792Z,1019.34
2019-04-11T06:09:32.963Z,1019.43
2019-04-11T06:10:30.433Z,1019.46
2019-04-11T06:11:30.538Z,1019.49
2019-04-11T06:12:29.656Z,1019.39
2019-04-11T06:13:29.410Z,1019.43
2019-04-11T06:14:29.388Z,1019.42
2019-04-11T06:15:29.377Z,1019.44
2019-04-11T06:16:37.020Z,1019.39
2019-04-11T06:17:30.357Z,1019.36
2019-04-11T06:18:33.018Z,1019.46
2019-04-11T06:19:30.580Z,1019.40
2019-04-11T06:20:29.331Z,1019.46
2019-04-11T06:21:29.313Z,1019.49
2019-04-11T06:22:29.723Z,1019.56
2019-04-11T06:23:29.616Z,1019.59
2019-04-11T06:24:29.286Z,1019.61
2019-04-11T06:25:30.882Z,1019.63
2019-04-11T06:26:30.411Z,1019.65
2019-04-11T06:27:30.375Z,1019.59
2019-04-11T06:28:30.637Z,1019.54
2019-04-11T06:29:29.920Z,1019.59
2019-04-11T06:30:30.409Z,1019.62
2019-04-11T06:31:29.821Z,1019.72
2019-04-11T06:32:29.910Z,1019.71
2019-04-11T06:33:29.188Z,1019.59
2019-04-11T06:34:30.325Z,1019.68
2019-04-11T06:35:30.245Z,1019.63
2019-04-11T06:36:30.109Z,1019.74
2019-04-11T06:37:29.796Z,1019.81
2019-04-11T06:38:30.275Z,1019.77
2019-04-11T06:39:29.471Z,1019.85
2019-04-11T06:40:29.267Z,1019.81
2019-04-11T06:41:29.102Z,1019.85
2019-04-11T06:42:30.185Z,1019.79
2019-04-11T06:43:29.088Z,1019.89
2019-04-11T06:44:30.052Z,1019.85
2019-04-11T06:45:29.390Z,1019.93
2019-04-11T06:46:29.305Z,1019.89
2019-04-11T06:47:29.238Z,1019.91
2019-04-11T06:48:29.682Z,1019.98
2019-04-11T06:49:29.027Z,1020.02
2019-04-11T06:50:29.151Z,1019.93
2019-04-11T06:51:30.203Z,1019.95
2019-04-11T06:52:28.985Z,1019.93
2019-04-11T06:53:30.087Z,1019.92
2019-04-11T06:54:28.960Z,1019.94
2019-04-11T06:55:29.061Z,1019.96
2019-04-11T06:56:29.362Z,1020.02
2019-04-11T06:57:30.010Z,1020.03
2019-04-11T06:58:29.710Z,1020.06
2019-04-11T06:59:29.131Z,1019.99
2019-04-11T07:00:29.303Z,1019.99
2019-04-11T07:01:29.961Z,1019.97
2019-04-11T07:02:29.894Z,1019.97
2019-04-11T07:03:30.438Z,1020.05
2019-04-11T07:04:29.464Z,1020.02
2019-04-11T07:05:29.029Z,1020.03
2019-04-11T07:06:29.413Z,1020.10
2019-04-11T07:07:30.513Z,1020.09
2019-04-11T07:08:29.974Z,1020.02
2019-04-11T07:09:28.830Z,1019.96
2019-04-11T07:10:28.786Z,1019.96
2019-04-11T07:11:28.792Z,1020.01
2019-04-11T07:12:28.764Z,1020.09
2019-04-11T07:13:28.767Z,1020.14
2019-04-11T07:14:29.163Z,1020.20
2019-04-11T07:15:29.404Z,1020.23
2019-04-11T07:16:29.659Z,1020.26
2019-04-11T07:17:29.652Z,1020.25
2019-04-11T07:18:29.103Z,1020.23
2019-04-11T07:19:28.746Z,1020.31
2019-04-11T07:20:29.304Z,1020.32
2019-04-11T07:21:28.666Z,1020.40
2019-04-11T07:22:28.656Z,1020.50
2019-04-11T07:23:28.649Z,1020.53
2019-04-11T07:24:28.635Z,1020.54
2019-04-11T07:25:28.949Z,1020.64
2019-04-11T07:26:29.456Z,1020.65
2019-04-11T07:27:28.603Z,1020.83
2019-04-11T07:28:29.471Z,1020.83
2019-04-11T07:29:29.233Z,1020.80
2019-04-11T07:30:28.931Z,1020.80
2019-04-11T07:31:29.871Z,1020.73
2019-04-11T07:32:29.774Z,1020.74
2019-04-11T07:33:28.932Z,1020.70
2019-04-11T07:34:32.744Z,1020.70
2019-04-11T07:35:29.515Z,1020.67
2019-04-11T07:36:29.574Z,1020.61
2019-04-11T07:37:28.503Z,1020.71
2019-04-11T07:38:29.409Z,1020.68
2019-04-11T07:39:28.933Z,1020.65
2019-04-11T07:40:29.341Z,1020.56
2019-04-11T07:41:29.738Z,1020.56
2019-04-11T07:42:28.442Z,1020.65
2019-04-11T07:43:29.220Z,1020.64
2019-04-11T07:44:30.163Z,1020.58
2019-04-11T07:45:28.406Z,1020.53
2019-04-11T07:46:28.962Z,1020.57
2019-04-11T07:47:29.480Z,1020.58
2019-04-11T07:48:29.210Z,1020.53
2019-04-11T07:49:28.582Z,1020.55
2019-04-11T07:50:28.350Z,1020.58
2019-04-11T07:51:28.539Z,1020.57
2019-04-11T07:52:31.362Z,1020.53
2019-04-11T07:53:28.603Z,1020.56
2019-04-11T07:54:28.309Z,1020.57
2019-04-11T07:55:28.308Z,1020.54
2019-04-11T07:56:29.420Z,1020.54
2019-04-11T07:57:28.493Z,1020.54
2019-04-11T07:58:28.620Z,1020.51
2019-04-11T07:59:29.481Z,1020.47
2019-04-11T08:00:38.857Z,1020.47
2019-04-11T08:01:29.465Z,1020.48
2019-04-11T08:02:29.036Z,1020.50
2019-04-11T08:03:28.213Z,1020.49
2019-04-11T08:04:28.238Z,1020.46
2019-04-11T08:05:28.192Z,1020.47
2019-04-11T08:06:28.828Z,1020.50
2019-04-11T08:07:28.249Z,1020.48
2019-04-11T08:08:28.157Z,1020.51
2019-04-11T08:09:29.011Z,1020.47
2019-04-11T08:10:29.358Z,1020.50
2019-04-11T08:11:28.126Z,1020.49
2019-04-11T08:12:28.115Z,1020.48
2019-04-11T08:13:28.381Z,1020.50
2019-04-11T08:14:28.690Z,1020.53
2019-04-11T08:15:29.298Z,1020.54
2019-04-11T08:16:28.950Z,1020.56
2019-04-11T08:17:37.059Z,1020.50
2019-04-11T08:18:29.060Z,1020.51
2019-04-11T08:19:28.876Z,1020.55
2019-04-11T08:20:29.091Z,1020.53
2019-04-11T08:21:28.283Z,1020.57
2019-04-11T08:22:28.010Z,1020.54
2019-04-11T08:23:27.996Z,1020.59
2019-04-11T08:24:28.879Z,1020.51
2019-04-11T08:25:29.226Z,1020.61
2019-04-11T08:26:28.306Z,1020.59
2019-04-11T08:27:27.952Z,1020.62
2019-04-11T08:28:28.964Z,1020.60
2019-04-11T08:29:28.632Z,1020.57
2019-04-11T08:30:27.926Z,1020.59
2019-04-11T08:31:28.831Z,1020.60
2019-04-11T08:32:27.895Z,1020.67
2019-04-11T08:33:28.800Z,1020.65
2019-04-11T08:34:29.090Z,1020.65
2019-04-11T08:35:28.356Z,1020.61
2019-04-11T08:36:27.859Z,1020.65
2019-04-11T08:37:27.838Z,1020.73
2019-04-11T08:38:28.778Z,1020.70
2019-04-11T08:39:29.006Z,1020.73
2019-04-11T08:40:28.132Z,1020.67
2019-04-11T08:41:27.798Z,1020.66
2019-04-11T08:42:27.792Z,1020.69
2019-04-11T08:43:28.933Z,1020.70
2019-04-11T08:44:28.059Z,1020.67
2019-04-11T08:45:27.749Z,1020.70
2019-04-11T08:46:28.879Z,1020.70
2019-04-11T08:47:40.154Z,1020.70
2019-04-11T08:48:28.924Z,1020.69
2019-04-11T08:49:29.943Z,1020.72
2019-04-11T08:50:28.284Z,1020.71
2019-04-11T08:51:27.683Z,1020.68
2019-04-11T08:52:27.944Z,1020.64
2019-04-11T08:53:28.808Z,1020.64
2019-04-11T08:54:27.661Z,1020.60
2019-04-11T08:55:27.638Z,1020.61
2019-04-11T08:56:28.529Z,1020.49
2019-04-11T08:57:27.616Z,1020.46
2019-04-11T08:58:28.763Z,1020.39
2019-04-11T08:59:27.596Z,1020.46
2019-04-11T09:00:28.262Z,1020.45
2019-04-11T09:01:27.794Z,1020.43
2019-04-11T09:02:27.563Z,1020.46
2019-04-11T09:03:27.553Z,1020.44
2019-04-11T09:04:27.544Z,1020.47
2019-04-11T09:05:27.533Z,1020.45
2019-04-11T09:06:28.420Z,1020.45
2019-04-11T09:07:27.624Z,1020.42
2019-04-11T09:08:27.498Z,1020.42
2019-04-11T09:09:27.601Z,1020.41
2019-04-11T09:10:28.270Z,1020.40
2019-04-11T09:11:28.719Z,1020.38
2019-04-11T09:12:28.718Z,1020.34
2019-04-11T09:13:27.446Z,1020.38
2019-04-11T09:14:28.440Z,1020.40
2019-04-11T09:15:28.642Z,1020.32
2019-04-11T09:16:27.772Z,1020.33
2019-04-11T09:17:28.243Z,1020.38
2019-04-11T09:18:28.104Z,1020.37
2019-04-11T09:19:27.382Z,1020.37
2019-04-11T09:20:27.658Z,1020.35
2019-04-11T09:21:28.531Z,1020.33
2019-04-11T09:22:27.345Z,1020.36
2019-04-11T09:23:27.923Z,1020.32
2019-04-11T09:24:27.387Z,1020.34
2019-04-11T09:25:28.645Z,1020.39
2019-04-11T09:26:27.729Z,1020.39
2019-04-11T09:27:27.290Z,1020.29
2019-04-11T09:28:27.279Z,1020.32
2019-04-11T09:29:28.362Z,1020.30
2019-04-11T09:30:28.495Z,1020.34
2019-04-11T09:31:27.591Z,1020.33
2019-04-11T09:32:28.490Z,1020.35
2019-04-11T09:33:27.232Z,1020.34
2019-04-11T09:34:28.052Z,1020.36
2019-04-11T09:35:27.202Z,1020.28
2019-04-11T09:36:28.969Z,1020.31
2019-04-11T09:37:27.461Z,1020.30
2019-04-11T09:38:27.172Z,1020.25
2019-04-11T09:39:27.156Z,1020.29
2019-04-11T09:40:28.033Z,1020.29
2019-04-11T09:41:28.184Z,1020.34
2019-04-11T09:42:28.308Z,1020.32
2019-04-11T09:43:28.209Z,1020.40
2019-04-11T09:44:27.102Z,1020.31
2019-04-11T09:45:27.757Z,1020.28
2019-04-11T09:46:27.230Z,1020.37
2019-04-11T09:47:28.254Z,1020.32
2019-04-11T09:48:27.070Z,1020.30
2019-04-11T09:49:27.165Z,1020.39
2019-04-11T09:50:27.041Z,1020.31
2019-04-11T09:51:29.215Z,1020.34
2019-04-11T09:52:27.030Z,1020.35
2019-04-11T09:53:28.186Z,1020.33
2019-04-11T09:54:28.184Z,1020.29
2019-04-11T09:55:26.981Z,1020.26
2019-04-11T09:56:27.113Z,1020.28
2019-04-11T09:57:26.963Z,1020.29
2019-04-11T09:58:27.532Z,1020.20
2019-04-11T09:59:27.248Z,1020.29
2019-04-11T10:00:28.397Z,1020.31
2019-04-11T10:01:26.916Z,1020.21
2019-04-11T10:02:27.514Z,1020.29
2019-04-11T10:03:27.872Z,1020.36
2019-04-11T10:04:27.642Z,1020.32
2019-04-11T10:05:26.872Z,1020.24
2019-04-11T10:06:28.021Z,1020.32
2019-04-11T10:07:28.115Z,1020.27
2019-04-11T10:08:26.851Z,1020.34
2019-04-11T10:09:28.140Z,1020.19
2019-04-11T10:10:26.828Z,1020.27
2019-04-11T10:11:28.139Z,1020.35
2019-04-11T10:12:27.642Z,1020.28
2019-04-11T10:13:26.970Z,1020.30
2019-04-11T10:14:26.780Z,1020.25
2019-04-11T10:15:27.223Z,1020.28
2019-04-11T10:16:26.752Z,1020.31
2019-04-11T10:17:26.977Z,1020.34
2019-04-11T10:18:32.209Z,1020.28
2019-04-11T10:19:27.837Z,1020.30
2019-04-11T10:20:26.885Z,1020.29
2019-04-11T10:21:26.697Z,1020.31
2019-04-11T10:22:27.107Z,1020.24
2019-04-11T10:23:27.066Z,1020.27
2019-04-11T10:24:26.680Z,1020.28
2019-04-11T10:25:28.325Z,1020.26
2019-04-11T10:26:27.707Z,1020.26
2019-04-11T10:27:26.800Z,1020.28
2019-04-11T10:28:27.326Z,1020.25
2019-04-11T10:29:29.833Z,1020.25
2019-04-11T10:30:26.610Z,1020.27
2019-04-11T10:31:26.587Z,1020.23
2019-04-11T10:32:27.517Z,1020.18
2019-04-11T10:33:26.680Z,1020.22
2019-04-11T10:34:27.842Z,1020.26
2019-04-11T10:35:26.544Z,1020.22
2019-04-11T10:36:27.381Z,1020.28
2019-04-11T10:37:27.556Z,1020.17
2019-04-11T10:38:26.665Z,1020.21
2019-04-11T10:39:27.149Z,1020.25
2019-04-11T10:40:26.496Z,1020.18
2019-04-11T10:41:26.477Z,1020.28
2019-04-11T10:42:26.790Z,1020.17
2019-04-11T10:43:26.695Z,1020.28
2019-04-11T10:44:26.719Z,1020.24
2019-04-11T10:45:26.837Z,1020.26
2019-04-11T10:46:27.140Z,1020.23
2019-04-11T10:47:27.065Z,1020.25
2019-04-11T10:48:34.508Z,1020.18
2019-04-11T10:49:28.405Z,1020.17
2019-04-11T10:50:26.383Z,1020.24
2019-04-11T10:51:26.470Z,1020.20
2019-04-11T10:52:26.640Z,1020.23
2019-04-11T10:53:26.979Z,1020.19
2019-04-11T10:54:26.353Z,1020.16
2019-04-11T10:55:27.369Z,1020.18
2019-04-11T10:56:26.484Z,1020.14
2019-04-11T10:57:26.305Z,1020.14
2019-04-11T10:58:26.817Z,1020.16
2019-04-11T10:59:27.814Z,1020.13
2019-04-11T11:00:27.278Z,1020.15
2019-04-11T11:01:26.710Z,1020.15
2019-04-11T11:02:26.251Z,1020.19
2019-04-11T11:03:27.351Z,1020.14
2019-04-11T11:04:27.490Z,1020.16
2019-04-11T11:05:26.340Z,1020.16
2019-04-11T11:06:27.399Z,1020.16
2019-04-11T11:07:26.744Z,1020.21
2019-04-11T11:08:26.184Z,1020.18
2019-04-11T11:09:26.321Z,1020.17
2019-04-11T11:10:26.167Z,1020.16
2019-04-11T11:11:26.176Z,1020.16
2019-04-11T11:12:27.309Z,1020.11
2019-04-11T11:13:26.130Z,1020.27
2019-04-11T11:14:26.958Z,1020.24
2019-04-11T11:15:27.359Z,1020.29
2019-04-11T11:16:28.809Z,1020.21
2019-04-11T11:17:47.137Z,1020.27
2019-04-11T11:18:53.100Z,1020.22
2019-04-11T11:19:43.656Z,1020.29
2019-04-11T11:20:33.736Z,1020.28
2019-04-11T11:21:30.594Z,1020.25
2019-04-11T11:22:27.370Z,1020.29
2019-04-11T11:23:26.863Z,1020.25
2019-04-11T11:24:26.122Z,1020.28
2019-04-11T11:25:26.743Z,1020.30
2019-04-11T11:26:26.560Z,1020.28
2019-04-11T11:27:26.562Z,1020.34
2019-04-11T11:28:25.989Z,1020.30
2019-04-11T11:29:26.622Z,1020.36
2019-04-11T11:30:27.088Z,1020.30
2019-04-11T11:31:25.935Z,1020.32
2019-04-11T11:32:27.278Z,1020.26
2019-04-11T11:33:26.604Z,1020.28
2019-04-11T11:34:25.902Z,1020.26
2019-04-11T11:35:29.420Z,1020.36
2019-04-11T11:36:26.895Z,1020.28
2019-04-11T11:37:25.903Z,1020.29
2019-04-11T11:38:26.096Z,1020.30
2019-04-11T11:39:26.900Z,1020.27
2019-04-11T11:40:25.982Z,1020.37
2019-04-11T11:41:25.824Z,1020.28
2019-04-11T11:42:26.173Z,1020.36
2019-04-11T11:43:25.802Z,1020.40
2019-04-11T11:44:25.795Z,1020.34
2019-04-11T11:45:25.780Z,1020.39
2019-04-11T11:46:29.541Z,1020.39
2019-04-11T11:47:27.849Z,1020.33
2019-04-11T11:48:26.356Z,1020.36
2019-04-11T11:49:41.475Z,1020.33
2019-04-11T11:50:26.862Z,1020.33
2019-04-11T11:51:29.225Z,1020.32
2019-04-11T11:52:26.855Z,1020.33
2019-04-11T11:53:27.314Z,1020.31
2019-04-11T11:54:25.730Z,1020.37
2019-04-11T11:55:25.700Z,1020.37
2019-04-11T11:56:26.260Z,1020.33
2019-04-11T11:57:26.647Z,1020.33
2019-04-11T11:58:25.792Z,1020.32
2019-04-11T11:59:25.640Z,1020.32
2019-04-11T12:00:25.618Z,1020.32
2019-04-11T12:01:25.608Z,1020.33
2019-04-11T12:02:26.391Z,1020.34
2019-04-11T12:03:28.382Z,1020.36
2019-04-11T12:04:26.171Z,1020.36
2019-04-11T12:05:26.772Z,1020.39
2019-04-11T12:06:25.554Z,1020.34
2019-04-11T12:07:25.558Z,1020.38
2019-04-11T12:08:25.532Z,1020.41